Time;durP1;ratioP1;P1;durP2;ratioP2;P2;SDS_P1;SDS_P2;PMS_P1;PMS_P2;Temp;Humidity;BMP_temperature;BMP_pressure;BME280_temperature;BME280_humidity;BME280_pressure;Samples;Min_cycle;Max_cycle;Signal;HPM_P1;HPM_P2
2022/03/20 00:00:53;;;;;;;8.65;5.72;;;;;;;;;;4979865;28;20455;-86
2022/03/20 00:03:20;;;;;;;9.93;6.50;;;;;;;;;;4980301;28;20042;-86
2022/03/20 00:05:48;;;;;;;9.07;5.70;;;;;;;;;;4974610;28;20038;-86
2022/03/20 00:08:14;;;;;;;8.77;6.43;;;;;;;;;;4979868;28;20050;-86
2022/03/20 00:10:42;;;;;;;9.60;7.22;;;;;;;;;;4963648;28;20061;-86
2022/03/20 00:13:09;;;;;;;12.00;7.05;;;;;;;;;;4980059;28;20758;-86
2022/03/20 00:15:35;;;;;;;11.32;7.20;;;;;;;;;;4979957;28;20041;-86
2022/03/20 00:18:01;;;;;;;11.95;8.52;;;;;;;;;;4979831;28;20050;-86
2022/03/20 00:20:27;;;;;;;8.82;7.28;;;;;;;;;;4978113;28;20039;-87
2022/03/20 00:22:56;;;;;;;10.35;7.30;;;;;;;;;;4963051;28;20038;-86
2022/03/20 00:25:21;;;;;;;8.40;7.13;;;;;;;;;;4980425;28;20042;-86
2022/03/20 00:27:47;;;;;;;9.50;7.07;;;;;;;;;;4979240;28;20142;-85
2022/03/20 00:30:13;;;;;;;11.38;7.05;;;;;;;;;;4979447;28;20046;-86
2022/03/20 00:32:40;;;;;;;11.40;7.05;;;;;;;;;;4969795;28;20042;-86
2022/03/20 00:35:06;;;;;;;9.38;6.70;;;;;;;;;;4979706;28;20492;-86
2022/03/20 00:37:32;;;;;;;7.47;6.15;;;;;;;;;;4963609;28;20396;-86
2022/03/20 00:39:58;;;;;;;12.10;7.25;;;;;;;;;;4979163;28;20049;-86
2022/03/20 00:42:26;;;;;;;9.43;6.80;;;;;;;;;;4978913;28;20133;-86
2022/03/20 00:44:52;;;;;;;10.57;7.00;;;;;;;;;;4963241;28;20038;-86
2022/03/20 00:47:18;;;;;;;11.32;7.43;;;;;;;;;;4981506;28;20034;-86
2022/03/20 00:49:44;;;;;;;13.73;7.78;;;;;;;;;;4976122;28;20069;-85
2022/03/20 00:52:10;;;;;;;9.45;7.43;;;;;;;;;;4978152;28;20117;-86
2022/03/20 00:54:36;;;;;;;11.15;7.57;;;;;;;;;;4975307;28;20480;-86
2022/03/20 00:57:02;;;;;;;10.65;7.70;;;;;;;;;;4979022;28;20877;-86
2022/03/20 00:59:28;;;;;;;13.93;8.27;;;;;;;;;;4962758;28;20499;-86
2022/03/20 01:01:55;;;;;;;9.32;7.25;;;;;;;;;;4978765;28;20085;-86
2022/03/20 01:04:21;;;;;;;9.27;7.15;;;;;;;;;;4996528;28;20563;-86
2022/03/20 01:06:47;;;;;;;11.93;8.02;;;;;;;;;;4957947;23;20138;-83
2022/03/20 01:09:12;;;;;;;12.13;8.10;;;;;;;;;;4957225;28;20054;-83
2022/03/20 01:11:39;;;;;;;9.98;7.30;;;;;;;;;;4939769;29;20098;-82
2022/03/20 01:14:06;;;;;;;10.13;7.90;;;;;;;;;;4954000;28;20051;-82
2022/03/20 01:16:32;;;;;;;11.88;8.30;;;;;;;;;;4940046;28;20043;-82
2022/03/20 01:18:58;;;;;;;12.85;8.68;;;;;;;;;;4955372;29;20755;-82
2022/03/20 01:21:24;;;;;;;11.48;7.88;;;;;;;;;;4933088;29;20485;-83
2022/03/20 01:23:50;;;;;;;11.07;7.20;;;;;;;;;;4940182;29;20050;-83
2022/03/20 01:26:17;;;;;;;11.02;6.78;;;;;;;;;;4949035;28;20045;-83
2022/03/20 01:28:43;;;;;;;12.60;7.43;;;;;;;;;;4940050;29;20386;-83
2022/03/20 01:31:09;;;;;;;9.63;7.53;;;;;;;;;;4955766;29;20054;-83
2022/03/20 01:33:35;;;;;;;10.18;7.18;;;;;;;;;;4950761;28;20492;-82
2022/03/20 01:36:01;;;;;;;10.32;7.88;;;;;;;;;;4930516;29;20039;-83
2022/03/20 01:38:27;;;;;;;11.73;7.80;;;;;;;;;;4953856;28;20385;-79
2022/03/20 01:40:53;;;;;;;13.93;7.88;;;;;;;;;;4937905;29;20051;-79
2022/03/20 01:43:20;;;;;;;11.73;8.00;;;;;;;;;;4954169;28;20043;-78
2022/03/20 01:45:46;;;;;;;9.88;7.65;;;;;;;;;;4954170;28;20035;-79
2022/03/20 01:48:12;;;;;;;13.05;8.20;;;;;;;;;;4954077;28;20094;-79
2022/03/20 01:50:39;;;;;;;12.23;8.32;;;;;;;;;;4949261;28;20048;-79
2022/03/20 01:53:05;;;;;;;14.32;9.70;;;;;;;;;;4951004;28;20043;-79
2022/03/20 01:55:32;;;;;;;12.35;8.68;;;;;;;;;;4951712;28;20050;-77
2022/03/20 01:57:58;;;;;;;12.07;8.18;;;;;;;;;;4956243;28;20524;-78
2022/03/20 02:00:27;;;;;;;13.23;7.88;;;;;;;;;;4960280;28;20047;-79
2022/03/20 02:02:53;;;;;;;10.55;8.65;;;;;;;;;;4953461;28;20046;-79
2022/03/20 02:05:21;;;;;;;11.73;7.97;;;;;;;;;;4950755;29;20491;-78
2022/03/20 02:07:47;;;;;;;11.35;8.20;;;;;;;;;;4956442;28;20062;-78
2022/03/20 02:10:13;;;;;;;11.98;7.78;;;;;;;;;;4961951;28;20043;-79
2022/03/20 02:12:40;;;;;;;10.90;7.60;;;;;;;;;;4950188;29;20043;-78
2022/03/20 02:15:07;;;;;;;12.70;7.75;;;;;;;;;;4953294;28;20473;-78
2022/03/20 02:17:33;;;;;;;12.43;8.50;;;;;;;;;;4953026;28;20039;-78
2022/03/20 02:20:03;;;;;;;17.15;8.13;;;;;;;;;;4952686;29;20647;-78
2022/03/20 02:22:29;;;;;;;10.55;8.15;;;;;;;;;;4963568;28;20346;-78
2022/03/20 02:24:55;;;;;;;10.77;8.52;;;;;;;;;;4952573;28;20059;-78
2022/03/20 02:27:23;;;;;;;11.75;9.18;;;;;;;;;;4936860;29;20677;-78
2022/03/20 02:29:54;;;;;;;12.75;7.28;;;;;;;;;;4942371;29;20892;-79
2022/03/20 02:32:23;;;;;;;11.10;8.50;;;;;;;;;;4952914;28;20067;-79
2022/03/20 02:34:49;;;;;;;14.95;8.85;;;;;;;;;;4952945;29;20051;-78
2022/03/20 02:37:17;;;;;;;14.15;9.07;;;;;;;;;;4961296;28;20405;-78
2022/03/20 02:39:43;;;;;;;11.95;9.45;;;;;;;;;;4948329;29;20138;-79
2022/03/20 02:42:09;;;;;;;13.93;9.63;;;;;;;;;;4954659;28;20041;-79
2022/03/20 02:44:50;;;;;;;12.25;8.38;;;;;;;;;;4948424;28;20031;-79
2022/03/20 02:47:20;;;;;;;13.93;9.65;;;;;;;;;;4950364;28;20039;-79
2022/03/20 02:49:48;;;;;;;12.45;9.30;;;;;;;;;;4952395;29;20102;-79
2022/03/20 02:52:14;;;;;;;13.40;9.38;;;;;;;;;;4951282;28;20086;-79
2022/03/20 02:54:40;;;;;;;13.35;9.68;;;;;;;;;;4950731;28;20043;-79
2022/03/20 02:57:09;;;;;;;17.95;10.13;;;;;;;;;;4938751;28;20054;-78
2022/03/20 02:59:35;;;;;;;13.63;9.52;;;;;;;;;;4948083;28;20130;-78
2022/03/20 03:02:02;;;;;;;12.57;9.20;;;;;;;;;;4932623;29;20050;-78
2022/03/20 03:04:28;;;;;;;16.17;9.40;;;;;;;;;;4957923;28;20074;-80
2022/03/20 03:06:54;;;;;;;13.13;9.13;;;;;;;;;;4950507;28;20404;-79
2022/03/20 03:12:05;;;;;;;13.45;9.80;;;;;;;;;;4950839;28;20055;-79
2022/03/20 03:17:27;;;;;;;11.60;7.70;;;;;;;;;;4944822;28;20059;-79
2022/03/20 03:19:54;;;;;;;13.70;9.98;;;;;;;;;;4950617;28;20421;-80
2022/03/20 03:22:20;;;;;;;14.80;10.45;;;;;;;;;;4948880;28;20039;-79
2022/03/20 03:24:46;;;;;;;14.32;9.70;;;;;;;;;;4951926;28;20521;-79
2022/03/20 03:27:12;;;;;;;13.73;10.90;;;;;;;;;;4946932;29;20071;-79
2022/03/20 03:29:38;;;;;;;15.30;10.23;;;;;;;;;;4950519;28;20039;-79
2022/03/20 03:32:05;;;;;;;14.35;9.80;;;;;;;;;;4952242;28;20482;-79
2022/03/20 03:37:18;;;;;;;14.90;10.52;;;;;;;;;;4949875;28;20050;-78
2022/03/20 03:39:45;;;;;;;12.63;10.73;;;;;;;;;;4950438;28;20055;-79
2022/03/20 03:42:11;;;;;;;16.13;11.05;;;;;;;;;;4951328;29;20035;-78
2022/03/20 03:44:37;;;;;;;15.23;10.57;;;;;;;;;;4950674;28;20050;-80
2022/03/20 03:47:03;;;;;;;15.10;11.38;;;;;;;;;;4951367;28;20055;-80
2022/03/20 03:49:29;;;;;;;19.00;11.63;;;;;;;;;;4949695;28;20089;-81
2022/03/20 03:51:56;;;;;;;13.07;10.65;;;;;;;;;;4952810;28;20043;-80
2022/03/20 03:54:22;;;;;;;15.23;11.63;;;;;;;;;;4949275;29;20039;-81
2022/03/20 03:56:48;;;;;;;15.57;11.68;;;;;;;;;;4953110;28;20078;-80
2022/03/20 03:59:13;;;;;;;15.38;11.40;;;;;;;;;;4949031;28;20509;-80
2022/03/20 04:01:40;;;;;;;15.63;11.45;;;;;;;;;;4948537;28;20054;-79
2022/03/20 04:04:06;;;;;;;15.77;11.32;;;;;;;;;;4949062;28;20101;-79
2022/03/20 04:06:33;;;;;;;15.10;10.77;;;;;;;;;;4947329;28;20059;-79
2022/03/20 04:08:59;;;;;;;13.93;11.18;;;;;;;;;;4935131;29;20055;-79
2022/03/20 04:11:24;;;;;;;18.83;12.88;;;;;;;;;;4951347;28;20039;-78
2022/03/20 04:13:50;;;;;;;13.98;11.05;;;;;;;;;;4963479;28;20043;-78
2022/03/20 04:16:18;;;;;;;15.70;9.60;;;;;;;;;;4933822;29;20070;-79
2022/03/20 04:18:44;;;;;;;15.48;11.63;;;;;;;;;;4934519;29;20115;-79
2022/03/20 04:21:12;;;;;;;16.13;12.00;;;;;;;;;;4946166;28;20043;-79
2022/03/20 04:23:50;;;;;;;19.25;12.18;;;;;;;;;;4951532;29;20560;-79
2022/03/20 04:26:18;;;;;;;15.02;11.70;;;;;;;;;;4943955;28;20035;-79
2022/03/20 04:28:44;;;;;;;19.83;13.80;;;;;;;;;;4943365;29;20498;-79
2022/03/20 04:31:15;;;;;;;19.55;13.13;;;;;;;;;;4953107;29;20101;-79
2022/03/20 04:33:42;;;;;;;17.70;12.95;;;;;;;;;;4954506;28;20062;-79
2022/03/20 04:36:09;;;;;;;17.42;12.57;;;;;;;;;;4948803;28;20130;-79
2022/03/20 04:38:35;;;;;;;16.95;12.45;;;;;;;;;;4951050;29;20047;-79
2022/03/20 04:41:01;;;;;;;14.52;12.65;;;;;;;;;;4962475;28;20045;-79
2022/03/20 04:43:27;;;;;;;18.40;13.43;;;;;;;;;;4932067;29;20073;-79
2022/03/20 04:45:53;;;;;;;19.08;14.10;;;;;;;;;;4935286;29;20043;-79
2022/03/20 04:59:19;;;;;;;19.58;13.30;;;;;;;;;;4955043;28;20051;-79
2022/03/20 05:01:46;;;;;;;19.02;13.55;;;;;;;;;;4954997;28;20129;-79
2022/03/20 05:04:13;;;;;;;16.77;12.15;;;;;;;;;;4940052;29;20043;-78
2022/03/20 05:06:39;;;;;;;20.08;13.45;;;;;;;;;;4954517;28;20066;-79
2022/03/20 05:14:35;;;;;;;16.23;13.07;;;;;;;;;;4954570;29;20055;-78
2022/03/20 05:17:03;;;;;;;17.42;14.25;;;;;;;;;;4963657;28;20038;-79
2022/03/20 05:19:29;;;;;;;21.95;15.27;;;;;;;;;;4947254;28;20103;-79
2022/03/20 05:21:56;;;;;;;21.05;14.68;;;;;;;;;;4952849;28;20036;-79
2022/03/20 05:24:22;;;;;;;19.60;15.13;;;;;;;;;;4961085;28;20054;-79
2022/03/20 05:26:48;;;;;;;21.98;15.50;;;;;;;;;;4935700;29;20043;-80
2022/03/20 05:29:14;;;;;;;21.88;15.68;;;;;;;;;;4956985;28;20093;-79
2022/03/20 05:31:39;;;;;;;18.83;14.13;;;;;;;;;;4949191;28;20489;-79
2022/03/20 05:34:06;;;;;;;20.95;14.60;;;;;;;;;;4953505;28;20423;-79
2022/03/20 05:36:32;;;;;;;20.10;15.70;;;;;;;;;;4949958;28;20074;-79
2022/03/20 05:38:59;;;;;;;18.45;13.63;;;;;;;;;;4954101;28;20079;-78
2022/03/20 05:41:46;;;;;;;16.98;14.43;;;;;;;;;;4952559;28;20039;-80
2022/03/20 05:44:12;;;;;;;18.52;15.40;;;;;;;;;;4928820;29;20043;-80
2022/03/20 05:46:39;;;;;;;19.80;15.82;;;;;;;;;;4935885;29;20314;-80
2022/03/20 05:49:05;;;;;;;23.77;15.73;;;;;;;;;;4962472;28;20058;-79
2022/03/20 05:51:31;;;;;;;17.83;14.85;;;;;;;;;;4950583;29;20040;-79
2022/03/20 05:53:58;;;;;;;20.92;16.13;;;;;;;;;;4953933;28;20720;-80
2022/03/20 05:59:09;;;;;;;23.02;17.65;;;;;;;;;;4956741;28;20051;-79
2022/03/20 06:01:35;;;;;;;23.00;15.75;;;;;;;;;;4952547;28;20114;-79
2022/03/20 06:04:03;;;;;;;21.80;16.10;;;;;;;;;;4955438;28;20039;-79
2022/03/20 06:06:29;;;;;;;22.17;17.05;;;;;;;;;;4954289;28;20063;-79
2022/03/20 06:08:56;;;;;;;23.48;17.13;;;;;;;;;;4935106;29;20047;-80
2022/03/20 06:11:22;;;;;;;21.80;16.08;;;;;;;;;;4934142;29;20047;-80
2022/03/20 06:13:48;;;;;;;20.70;14.90;;;;;;;;;;4950601;29;20051;-79
2022/03/20 06:16:22;;;;;;;21.67;17.00;;;;;;;;;;4953573;29;20813;-79
2022/03/20 06:18:48;;;;;;;21.85;16.30;;;;;;;;;;4931683;29;20043;-79
2022/03/20 06:21:14;;;;;;;20.10;16.08;;;;;;;;;;4953482;29;20091;-80
2022/03/20 06:23:40;;;;;;;17.67;15.43;;;;;;;;;;4953147;28;20046;-81
2022/03/20 06:26:10;;;;;;;21.23;15.90;;;;;;;;;;4953760;28;20138;-80
2022/03/20 06:28:40;;;;;;;21.65;16.77;;;;;;;;;;4951468;28;20054;-80
2022/03/20 06:31:06;;;;;;;20.45;15.20;;;;;;;;;;4952465;28;20066;-79
2022/03/20 06:33:34;;;;;;;22.98;16.98;;;;;;;;;;4933696;29;20050;-80
2022/03/20 06:36:01;;;;;;;23.70;16.15;;;;;;;;;;4935187;29;20035;-80
2022/03/20 06:38:27;;;;;;;19.40;15.80;;;;;;;;;;4951791;28;20047;-80
2022/03/20 06:40:53;;;;;;;19.45;16.27;;;;;;;;;;4949934;28;20043;-80
2022/03/20 06:43:19;;;;;;;20.98;16.27;;;;;;;;;;4955677;28;20147;-79
2022/03/20 06:45:46;;;;;;;19.55;15.77;;;;;;;;;;4958129;28;20043;-79
2022/03/20 06:48:12;;;;;;;20.13;16.65;;;;;;;;;;4952903;29;20099;-79
2022/03/20 06:50:38;;;;;;;20.98;16.55;;;;;;;;;;4933180;28;20090;-79
2022/03/20 06:53:04;;;;;;;21.10;15.30;;;;;;;;;;4948894;28;20481;-79
2022/03/20 06:55:31;;;;;;;18.60;15.43;;;;;;;;;;4936340;29;20035;-79
2022/03/20 06:57:58;;;;;;;19.98;15.45;;;;;;;;;;4950452;29;20070;-79
2022/03/20 07:00:25;;;;;;;19.10;15.15;;;;;;;;;;4952197;29;20126;-78
2022/03/20 07:02:53;;;;;;;18.48;15.57;;;;;;;;;;4950637;28;20121;-79
2022/03/20 07:05:19;;;;;;;17.40;15.02;;;;;;;;;;4946131;29;20808;-78
2022/03/20 07:07:45;;;;;;;19.55;15.25;;;;;;;;;;4936498;29;20120;-79
2022/03/20 07:10:13;;;;;;;18.90;15.50;;;;;;;;;;4927907;29;20055;-79
2022/03/20 07:12:39;;;;;;;22.15;15.52;;;;;;;;;;4935137;29;20050;-79
2022/03/20 07:15:06;;;;;;;17.98;15.02;;;;;;;;;;4936703;29;20055;-79
2022/03/20 07:17:36;;;;;;;20.45;15.80;;;;;;;;;;4937056;29;20047;-78
2022/03/20 07:20:03;;;;;;;19.65;16.42;;;;;;;;;;4936317;29;20046;-78
2022/03/20 07:22:29;;;;;;;19.90;15.75;;;;;;;;;;4947492;29;20091;-79
2022/03/20 07:29:29;;;;;;;19.35;15.23;;;;;;;;;;4951908;29;20043;-79
2022/03/20 07:30:25;;;;;;;19.33;14.93;;;;;;;;;;4965441;28;20050;-78
2022/03/20 07:32:51;;;;;;;18.67;15.27;;;;;;;;;;4952341;29;20047;-79
2022/03/20 07:35:17;;;;;;;22.08;16.98;;;;;;;;;;4947128;28;20063;-79
2022/03/20 07:37:43;;;;;;;20.48;16.13;;;;;;;;;;4949839;29;20789;-79
2022/03/20 07:40:09;;;;;;;16.35;14.07;;;;;;;;;;4928204;29;20134;-79
2022/03/20 07:42:35;;;;;;;19.85;16.50;;;;;;;;;;4945186;28;20059;-79
2022/03/20 07:45:03;;;;;;;18.48;14.90;;;;;;;;;;4947786;28;20046;-79
2022/03/20 07:47:29;;;;;;;19.45;15.70;;;;;;;;;;4950631;28;20042;-79
2022/03/20 07:49:54;;;;;;;19.90;14.18;;;;;;;;;;4950997;28;20066;-79
2022/03/20 07:52:20;;;;;;;18.65;15.50;;;;;;;;;;4941980;28;20082;-79
2022/03/20 07:54:47;;;;;;;21.48;16.35;;;;;;;;;;4951734;28;20047;-79
2022/03/20 07:57:13;;;;;;;25.08;15.48;;;;;;;;;;4952694;28;20047;-79
2022/03/20 07:59:39;;;;;;;19.73;14.40;;;;;;;;;;4954034;28;20158;-79
2022/03/20 08:02:06;;;;;;;19.60;13.77;;;;;;;;;;4946918;29;20106;-79
2022/03/20 08:04:32;;;;;;;20.50;16.13;;;;;;;;;;4938420;29;20066;-79
2022/03/20 08:06:58;;;;;;;21.50;16.92;;;;;;;;;;4955696;29;20399;-79
2022/03/20 08:09:27;;;;;;;17.05;12.60;;;;;;;;;;4940426;29;20051;-79
2022/03/20 08:11:53;;;;;;;18.52;15.50;;;;;;;;;;4939833;29;20043;-79
2022/03/20 08:14:20;;;;;;;21.52;14.90;;;;;;;;;;4955986;29;20082;-79
2022/03/20 08:16:47;;;;;;;19.95;17.67;;;;;;;;;;4945291;28;20519;-79
2022/03/20 08:19:16;;;;;;;23.20;17.75;;;;;;;;;;4960537;28;20134;-79
2022/03/20 08:21:42;;;;;;;18.80;14.43;;;;;;;;;;4954767;29;20043;-80
2022/03/20 08:24:09;;;;;;;21.58;15.20;;;;;;;;;;4955276;29;20058;-80
2022/03/20 08:26:35;;;;;;;20.80;14.07;;;;;;;;;;4954771;29;20098;-79
2022/03/20 08:29:01;;;;;;;21.00;16.55;;;;;;;;;;4955812;29;20482;-79
2022/03/20 08:31:33;;;;;;;23.30;16.83;;;;;;;;;;4954978;29;20046;-79
2022/03/20 08:33:59;;;;;;;;;;;;;;;;;;4955478;29;20055;-79
2022/03/20 08:36:26;;;;;;;20.50;16.63;;;;;;;;;;4955474;29;19918;-79
2022/03/20 08:38:52;;;;;;;24.27;16.30;;;;;;;;;;4939277;29;20047;-79
2022/03/20 08:41:18;;;;;;;21.25;17.63;;;;;;;;;;4955546;29;20105;-79
2022/03/20 08:43:44;;;;;;;25.40;17.58;;;;;;;;;;4938328;29;20043;-78
2022/03/20 08:46:10;;;;;;;22.48;15.82;;;;;;;;;;4952984;29;20050;-80
2022/03/20 08:48:36;;;;;;;20.02;15.73;;;;;;;;;;4952541;29;20379;-79
2022/03/20 08:51:02;;;;;;;19.73;17.38;;;;;;;;;;4957136;28;20493;-79
2022/03/20 08:53:29;;;;;;;20.17;14.38;;;;;;;;;;4952186;28;20093;-79
2022/03/20 08:55:55;;;;;;;20.50;15.90;;;;;;;;;;4952538;28;20050;-78
2022/03/20 08:58:21;;;;;;;21.38;17.95;;;;;;;;;;4953721;28;20050;-79
2022/03/20 09:00:48;;;;;;;20.60;16.45;;;;;;;;;;4953905;28;20046;-79
2022/03/20 09:03:13;;;;;;;21.08;16.73;;;;;;;;;;4951784;28;20542;-79
2022/03/20 09:05:40;;;;;;;23.65;18.05;;;;;;;;;;4949903;29;20086;-79
2022/03/20 09:08:06;;;;;;;21.00;15.35;;;;;;;;;;4953261;28;20058;-79
2022/03/20 09:10:34;;;;;;;20.15;14.85;;;;;;;;;;4938524;29;20043;-78
2022/03/20 09:13:00;;;;;;;22.52;18.02;;;;;;;;;;4937979;28;20051;-78
2022/03/20 09:15:29;;;;;;;22.83;17.02;;;;;;;;;;4953229;28;20050;-78
2022/03/20 09:20:41;;;;;;;19.45;15.52;;;;;;;;;;4959238;28;20047;-78
2022/03/20 09:23:08;;;;;;;20.77;15.30;;;;;;;;;;4946843;28;20038;-80
2022/03/20 09:25:34;;;;;;;21.50;17.30;;;;;;;;;;4957594;28;20370;-79
2022/03/20 09:28:00;;;;;;;23.15;18.73;;;;;;;;;;4957108;28;20134;-79
2022/03/20 09:30:26;;;;;;;27.75;18.40;;;;;;;;;;4953691;28;20043;-79
2022/03/20 09:32:53;;;;;;;24.95;18.85;;;;;;;;;;4954581;28;20035;-79
2022/03/20 09:35:19;;;;;;;23.77;17.15;;;;;;;;;;4953696;28;20062;-79
2022/03/20 09:37:45;;;;;;;20.88;15.30;;;;;;;;;;4953090;29;20043;-79
2022/03/20 09:40:12;;;;;;;24.48;18.90;;;;;;;;;;4956059;28;20065;-79
2022/03/20 09:42:38;;;;;;;26.13;18.35;;;;;;;;;;4952204;28;20047;-79
2022/03/20 09:45:05;;;;;;;21.65;16.80;;;;;;;;;;4937509;29;20051;-79
2022/03/20 09:47:34;;;;;;;23.13;18.35;;;;;;;;;;4953392;28;20362;-79
2022/03/20 09:50:00;;;;;;;22.08;17.60;;;;;;;;;;4936161;29;20042;-79
2022/03/20 09:52:26;;;;;;;23.38;19.63;;;;;;;;;;4954077;29;20125;-79
2022/03/20 09:54:52;;;;;;;16.95;12.32;;;;;;;;;;4954191;29;20074;-78
2022/03/20 09:57:19;;;;;;;22.33;15.82;;;;;;;;;;4955079;28;20464;-78
2022/03/20 09:59:45;;;;;;;21.38;18.05;;;;;;;;;;4954857;28;20086;-78
2022/03/20 10:02:12;;;;;;;24.88;18.60;;;;;;;;;;4953746;28;20126;-78
2022/03/20 10:04:57;;;;;;;23.60;18.80;;;;;;;;;;4953309;28;20126;-78
2022/03/20 10:07:24;;;;;;;23.75;17.83;;;;;;;;;;4937946;29;20067;-77
2022/03/20 10:10:07;;;;;;;19.20;15.20;;;;;;;;;;4953489;28;20051;-78
2022/03/20 10:12:32;;;;;;;;;;;;;;;;;;4928430;29;20486;-78
2022/03/20 10:14:58;;;;;;;25.38;20.55;;;;;;;;;;4942117;28;19925;-79
2022/03/20 10:17:24;;;;;;;23.27;18.50;;;;;;;;;;4958849;28;20117;-77
2022/03/20 10:19:50;;;;;;;23.17;18.80;;;;;;;;;;4952965;29;20046;-79
2022/03/20 10:22:17;;;;;;;21.90;18.35;;;;;;;;;;4951882;28;20122;-78
2022/03/20 10:24:48;;;;;;;23.25;17.52;;;;;;;;;;4953133;29;20584;-78
2022/03/20 10:27:15;;;;;;;24.95;20.05;;;;;;;;;;4946513;28;20039;-78
2022/03/20 10:29:51;;;;;;;24.23;19.98;;;;;;;;;;4933477;29;20061;-77
2022/03/20 10:32:18;;;;;;;27.02;21.13;;;;;;;;;;4941069;28;20043;-78
2022/03/20 10:34:48;;;;;;;21.77;17.48;;;;;;;;;;4936705;29;20058;-79
2022/03/20 10:37:14;;;;;;;24.45;19.70;;;;;;;;;;4953368;28;20115;-79
2022/03/20 10:39:42;;;;;;;21.13;18.38;;;;;;;;;;4950820;28;20043;-79
2022/03/20 10:42:11;;;;;;;22.80;19.95;;;;;;;;;;4946389;28;20047;-79
2022/03/20 10:44:38;;;;;;;23.63;17.83;;;;;;;;;;4948654;29;20402;-79
2022/03/20 10:47:14;;;;;;;22.58;18.85;;;;;;;;;;4962934;28;20667;-78
2022/03/20 10:49:42;;;;;;;26.77;19.88;;;;;;;;;;4944287;28;20058;-78
2022/03/20 10:52:12;;;;;;;26.98;20.55;;;;;;;;;;4943460;29;20521;-79
2022/03/20 10:54:54;;;;;;;20.92;17.63;;;;;;;;;;4945789;29;20046;-78
2022/03/20 10:57:21;;;;;;;29.15;20.48;;;;;;;;;;4951877;29;20039;-78
2022/03/20 10:59:57;;;;;;;24.45;19.02;;;;;;;;;;4951337;28;20051;-79
2022/03/20 11:02:24;;;;;;;24.25;18.85;;;;;;;;;;4936901;28;20046;-79
2022/03/20 11:04:51;;;;;;;34.50;19.55;;;;;;;;;;4944409;28;20039;-79
2022/03/20 11:07:20;;;;;;;24.15;21.02;;;;;;;;;;4942198;28;20051;-78
2022/03/20 11:09:50;;;;;;;22.95;19.10;;;;;;;;;;4944165;28;20110;-78
2022/03/20 11:12:24;;;;;;;25.48;19.50;;;;;;;;;;4947649;28;20082;-79
2022/03/20 11:14:50;;;;;;;28.85;19.80;;;;;;;;;;4948606;28;20106;-79
2022/03/20 11:17:19;;;;;;;28.80;19.90;;;;;;;;;;4946074;28;20046;-80
2022/03/20 11:19:53;;;;;;;22.27;18.48;;;;;;;;;;4927392;28;20067;-79
2022/03/20 11:22:20;;;;;;;24.77;20.67;;;;;;;;;;4935125;29;20039;-79
2022/03/20 11:24:47;;;;;;;28.30;19.38;;;;;;;;;;4950620;29;20049;-78
2022/03/20 11:27:15;;;;;;;25.55;20.10;;;;;;;;;;4951554;28;20046;-78
2022/03/20 11:29:48;;;;;;;25.60;19.15;;;;;;;;;;4934858;29;20039;-78
2022/03/20 11:32:15;;;;;;;26.02;17.20;;;;;;;;;;4951295;28;20082;-78
2022/03/20 11:34:43;;;;;;;26.42;20.63;;;;;;;;;;4947330;28;20048;-77
2022/03/20 11:37:10;;;;;;;24.27;19.02;;;;;;;;;;4951254;28;20047;-77
2022/03/20 11:39:36;;;;;;;24.77;20.25;;;;;;;;;;4937549;29;20051;-77
2022/03/20 11:42:32;;;;;;;26.55;20.05;;;;;;;;;;4947310;28;20043;-78
2022/03/20 11:45:01;;;;;;;25.83;20.75;;;;;;;;;;4914257;29;20051;-78
2022/03/20 11:47:29;;;;;;;26.02;20.05;;;;;;;;;;4941661;28;20565;-78
2022/03/20 11:50:14;;;;;;;24.50;20.40;;;;;;;;;;4950354;28;20066;-79
2022/03/20 11:53:00;;;;;;;23.17;19.40;;;;;;;;;;4928854;28;20047;-78
2022/03/20 11:55:30;;;;;;;27.20;20.33;;;;;;;;;;4950422;28;20393;-78
2022/03/20 11:57:57;;;;;;;28.10;20.33;;;;;;;;;;4947737;29;20494;-77
2022/03/20 12:00:24;;;;;;;21.60;18.25;;;;;;;;;;4930762;29;20051;-78
2022/03/20 12:03:09;;;;;;;26.20;20.13;;;;;;;;;;4933563;29;20051;-78
2022/03/20 12:05:41;;;;;;;22.88;15.98;;;;;;;;;;4934639;29;20070;-78
2022/03/20 12:08:26;;;;;;;24.55;18.77;;;;;;;;;;4947771;28;20397;-79
2022/03/20 12:11:04;;;;;;;23.23;18.00;;;;;;;;;;4943701;28;20093;-76
2022/03/20 12:13:43;;;;;;;24.23;19.77;;;;;;;;;;4947820;28;20074;-79
2022/03/20 12:16:09;;;;;;;21.73;17.75;;;;;;;;;;4951329;28;20066;-80
2022/03/20 12:18:54;;;;;;;24.35;19.75;;;;;;;;;;4939055;29;20043;-80
2022/03/20 12:21:40;;;;;;;26.15;18.40;;;;;;;;;;4924800;29;20039;-80
2022/03/20 12:24:26;;;;;;;26.30;20.92;;;;;;;;;;4951387;29;20043;-80
2022/03/20 12:26:53;;;;;;;26.52;21.38;;;;;;;;;;4946299;28;20050;-80
2022/03/20 12:29:33;;;;;;;24.27;18.40;;;;;;;;;;4949439;28;20043;-79
2022/03/20 12:32:00;;;;;;;24.83;19.98;;;;;;;;;;4947685;28;20129;-79
2022/03/20 12:34:28;;;;;;;24.13;20.55;;;;;;;;;;4944831;28;20055;-78
2022/03/20 12:36:54;;;;;;;28.13;21.15;;;;;;;;;;4948681;28;20055;-79
2022/03/20 12:39:39;;;;;;;23.58;20.90;;;;;;;;;;4946999;28;20047;-78
2022/03/20 12:42:15;;;;;;;26.40;21.42;;;;;;;;;;4949975;28;20151;-79
2022/03/20 12:44:44;;;;;;;25.77;21.42;;;;;;;;;;4933974;28;20050;-79
2022/03/20 12:47:10;;;;;;;23.17;20.48;;;;;;;;;;4933187;28;20662;-79
2022/03/20 12:49:36;;;;;;;22.17;18.75;;;;;;;;;;4949748;28;20098;-79
2022/03/20 12:52:02;;;;;;;19.80;16.13;;;;;;;;;;4951696;28;20061;-79
2022/03/20 12:54:30;;;;;;;22.98;20.48;;;;;;;;;;4953391;28;20085;-79
2022/03/20 12:56:58;;;;;;;22.83;19.42;;;;;;;;;;4951004;28;20050;-79
2022/03/20 12:59:25;;;;;;;28.35;21.35;;;;;;;;;;4952630;28;20051;-77
2022/03/20 13:01:52;;;;;;;24.02;20.60;;;;;;;;;;4948376;28;20113;-79
2022/03/20 13:04:19;;;;;;;25.42;19.33;;;;;;;;;;4935258;28;20049;-79
2022/03/20 13:06:45;;;;;;;26.70;21.05;;;;;;;;;;4951898;29;20382;-79
2022/03/20 13:09:14;;;;;;;26.77;21.73;;;;;;;;;;4954591;28;20054;-79
2022/03/20 13:11:52;;;;;;;27.55;21.60;;;;;;;;;;4954255;29;20607;-80
2022/03/20 13:14:18;;;;;;;24.55;20.42;;;;;;;;;;4949262;28;20047;-80
2022/03/20 13:17:03;;;;;;;22.90;18.58;;;;;;;;;;4951154;28;20039;-80
2022/03/20 13:19:30;;;;;;;25.25;21.08;;;;;;;;;;4951745;29;20413;-80
2022/03/20 13:21:57;;;;;;;24.52;20.92;;;;;;;;;;4942517;23;20086;-80
2022/03/20 13:24:27;;;;;;;24.50;21.23;;;;;;;;;;4969807;28;20082;-79
2022/03/20 13:26:57;;;;;;;25.73;21.13;;;;;;;;;;4935949;29;20151;-79
2022/03/20 13:29:23;;;;;;;25.33;21.15;;;;;;;;;;4937753;29;20043;-79
2022/03/20 13:32:08;;;;;;;23.40;17.83;;;;;;;;;;4953773;29;20053;-79
2022/03/20 13:34:41;;;;;;;23.25;20.70;;;;;;;;;;4957694;28;20102;-79
2022/03/20 13:37:10;;;;;;;21.77;18.33;;;;;;;;;;4936152;29;20039;-79
2022/03/20 13:39:36;;;;;;;22.00;19.52;;;;;;;;;;4957974;28;20046;-78
2022/03/20 13:42:14;;;;;;;25.98;18.73;;;;;;;;;;4950659;28;20051;-78
2022/03/20 13:44:40;;;;;;;26.88;21.98;;;;;;;;;;4953727;29;20043;-78
2022/03/20 13:47:07;;;;;;;25.10;21.15;;;;;;;;;;4952568;29;20047;-78
2022/03/20 13:49:33;;;;;;;24.08;20.23;;;;;;;;;;4952471;29;20042;-78
2022/03/20 13:51:59;;;;;;;23.30;19.95;;;;;;;;;;4936842;29;20137;-79
2022/03/20 13:54:25;;;;;;;23.50;20.08;;;;;;;;;;4920300;29;20498;-79
2022/03/20 13:57:08;;;;;;;28.23;21.80;;;;;;;;;;4937117;29;20050;-79
2022/03/20 13:59:52;;;;;;;25.52;20.90;;;;;;;;;;4968519;28;20066;-78
2022/03/20 14:02:20;;;;;;;27.33;21.15;;;;;;;;;;4952975;28;20094;-78
2022/03/20 14:04:47;;;;;;;25.70;21.38;;;;;;;;;;4951833;29;20584;-79
2022/03/20 14:07:20;;;;;;;24.17;19.58;;;;;;;;;;4953116;28;20106;-78
2022/03/20 14:09:46;;;;;;;24.52;20.70;;;;;;;;;;4951545;28;20051;-79
2022/03/20 14:12:29;;;;;;;23.95;20.52;;;;;;;;;;4952449;29;20128;-78
2022/03/20 14:15:09;;;;;;;25.02;20.77;;;;;;;;;;4952285;29;20047;-78
2022/03/20 14:17:39;;;;;;;25.80;21.45;;;;;;;;;;4951015;28;20035;-78
2022/03/20 14:20:09;;;;;;;26.92;22.17;;;;;;;;;;4949897;29;20476;-78
2022/03/20 14:23:03;;;;;;;24.98;18.92;;;;;;;;;;4946684;29;20074;-78
2022/03/20 14:25:34;;;;;;;24.58;20.08;;;;;;;;;;4949600;29;20263;-78
2022/03/20 14:28:05;;;;;;;24.90;19.63;;;;;;;;;;4968888;28;20059;-78
2022/03/20 14:41:35;;;;;;;25.27;20.98;;;;;;;;;;4951349;29;20055;-77
2022/03/20 14:44:05;;;;;;;23.52;19.55;;;;;;;;;;4953764;28;20051;-77
2022/03/20 14:46:31;;;;;;;26.15;21.38;;;;;;;;;;4951998;28;20039;-78
2022/03/20 14:48:57;;;;;;;24.15;19.20;;;;;;;;;;4949434;29;20107;-78
2022/03/20 14:51:24;;;;;;;23.40;19.63;;;;;;;;;;4951875;29;20043;-78
2022/03/20 14:53:50;;;;;;;26.33;20.50;;;;;;;;;;4968618;28;20501;-78
2022/03/20 14:56:16;;;;;;;24.23;20.48;;;;;;;;;;4952507;29;20421;-78
2022/03/20 14:58:45;;;;;;;25.20;21.23;;;;;;;;;;4936133;29;20185;-78
2022/03/20 15:01:11;;;;;;;23.80;17.48;;;;;;;;;;4935894;29;20054;-78
2022/03/20 15:03:37;;;;;;;23.80;20.60;;;;;;;;;;4943538;29;20047;-78
2022/03/20 15:06:03;;;;;;;24.40;18.50;;;;;;;;;;4951312;29;20058;-78
2022/03/20 15:11:26;;;;;;;24.92;20.02;;;;;;;;;;4958789;28;20043;-77
2022/03/20 15:13:57;;;;;;;22.73;19.45;;;;;;;;;;4950163;28;20527;-78